Hovedside
METAR-TAF:

METAR-TAF

Lufthavner :

Tartu, Estland

Tartu lufthavn

breddegrad: 58-18N, lengdegrad: 026-44E, høyde over havet: 59 m

Gjeldene værobservasjon

Denne rapporten ble laget for 50 minutter siden, klokken 17:50 UTC
Vind 6 kt fra Øst
Temperatur 12°C
Luftfuktighet 82%
Trykk 1025 hPa
Sikt 10 km eller mer
ingen skyer under 1500 m og ingen bygeskyer

METAR: EETU 221750Z 10006KT CAVOK 12/09 Q1025

Tid: 21:40 (18:40 UTC)

Varsel

Denne rapporten ble laget for 2 timer og 40 minutter siden, klokken 16:00 UTC
Varsel gyldig fra 22. klokken 17 UTC til 22. klokken 23 UTC
Vind 10 kt fra Øst
Sikt 10 km eller mer
ingen skyer under 1500 m og ingen bygeskyer

TAF: EETU 221600Z 2217/2223 10010KT CAVOK

Værobservasjoner og værvarsel for over 4000 flyplasser (METAR- og TAF-rapporter).

Tilgjengelige stasjoner er representert av de røde og gule prikkene på kartet.

Hold musepekeren over prikken for å se navnet på stasjonen.

Klikk så for å se værobservasjoner og -varsler.

For å forandre kartet kan du klikke på den grønne knappen med svart kryss for å zoome inn, på den grønne knappen med strek for å zoome ut, eller på de grønne pilene for å se tilstøtende kart.


METAR-TAF: